sensor_id;sensor_type;location;lat;lon;timestamp;P1;P2;P0
46044;PMS7003;31781;54.094;13.428;2023-04-15T00:01:07;25.33;23.00;20.67
46044;PMS7003;31781;54.094;13.428;2023-04-15T00:03:11;30.33;26.33;19.00
46044;PMS7003;31781;54.094;13.428;2023-04-15T00:05:19;24.67;23.00;19.33
46044;PMS7003;31781;54.094;13.428;2023-04-15T00:07:35;24.00;24.00;19.67
46044;PMS7003;31781;54.094;13.428;2023-04-15T00:09:51;26.00;26.00;19.00
46044;PMS7003;31781;54.094;13.428;2023-04-15T00:12:12;23.33;21.00;15.00
46044;PMS7003;31781;54.094;13.428;2023-04-15T00:14:29;28.00;27.00;19.67
46044;PMS7003;31781;54.094;13.428;2023-04-15T00:16:33;27.00;23.67;16.33
46044;PMS7003;31781;54.094;13.428;2023-04-15T00:18:34;31.33;27.33;19.00
46044;PMS7003;31781;54.094;13.428;2023-04-15T00:20:39;22.33;21.33;18.00
46044;PMS7003;31781;54.094;13.428;2023-04-15T00:24:18;22.00;22.00;15.00
46044;PMS7003;31781;54.094;13.428;2023-04-15T00:40:09;26.33;22.67;18.33
46044;PMS7003;31781;54.094;13.428;2023-04-15T00:42:27;30.67;23.67;17.00
46044;PMS7003;31781;54.094;13.428;2023-04-15T00:44:46;25.67;24.00;18.00
46044;PMS7003;31781;54.094;13.428;2023-04-15T00:46:55;24.33;20.33;14.33
46044;PMS7003;31781;54.094;13.428;2023-04-15T00:49:31;25.67;25.67;19.00
46044;PMS7003;31781;54.094;13.428;2023-04-15T00:51:47;20.00;20.00;14.00
46044;PMS7003;31781;54.094;13.428;2023-04-15T00:54:06;21.33;18.00;13.67
46044;PMS7003;31781;54.094;13.428;2023-04-15T00:59:13;22.00;19.33;14.33
46044;PMS7003;31781;54.094;13.428;2023-04-15T01:01:28;22.33;20.67;16.33
46044;PMS7003;31781;54.094;13.428;2023-04-15T01:03:53;21.67;20.33;16.33
46044;PMS7003;31781;54.094;13.428;2023-04-15T01:06:11;31.00;27.00;18.00
46044;PMS7003;31781;54.094;13.428;2023-04-15T01:08:28;19.33;18.33;13.33
46044;PMS7003;31781;54.094;13.428;2023-04-15T01:10:44;24.00;22.00;14.00
46044;PMS7003;31781;54.094;13.428;2023-04-15T01:13:00;22.00;21.33;15.00
46044;PMS7003;31781;54.094;13.428;2023-04-15T01:17:53;15.33;15.33;12.00
46044;PMS7003;31781;54.094;13.428;2023-04-15T01:20:11;25.00;22.33;14.00
46044;PMS7003;31781;54.094;13.428;2023-04-15T01:22:27;26.67;24.00;17.67
46044;PMS7003;31781;54.094;13.428;2023-04-15T01:24:42;20.67;19.00;13.33
46044;PMS7003;31781;54.094;13.428;2023-04-15T01:29:57;32.00;28.67;16.33
46044;PMS7003;31781;54.094;13.428;2023-04-15T01:32:12;28.33;22.00;16.67
46044;PMS7003;31781;54.094;13.428;2023-04-15T01:34:19;26.33;24.33;15.67
46044;PMS7003;31781;54.094;13.428;2023-04-15T01:36:36;28.67;23.67;17.33
46044;PMS7003;31781;54.094;13.428;2023-04-15T01:39:03;25.00;21.67;16.67
46044;PMS7003;31781;54.094;13.428;2023-04-15T01:41:06;25.67;25.67;18.33
46044;PMS7003;31781;54.094;13.428;2023-04-15T01:43:22;25.33;24.00;16.33
46044;PMS7003;31781;54.094;13.428;2023-04-15T01:56:49;24.67;22.67;15.67
46044;PMS7003;31781;54.094;13.428;2023-04-15T01:59:05;23.00;23.00;14.33
46044;PMS7003;31781;54.094;13.428;2023-04-15T02:01:26;24.67;23.00;16.00
46044;PMS7003;31781;54.094;13.428;2023-04-15T02:03:43;29.67;27.67;18.00
46044;PMS7003;31781;54.094;13.428;2023-04-15T02:06:22;20.00;19.00;15.67
46044;PMS7003;31781;54.094;13.428;2023-04-15T02:08:24;27.00;26.67;18.67
46044;PMS7003;31781;54.094;13.428;2023-04-15T02:10:26;31.00;26.33;20.33
46044;PMS7003;31781;54.094;13.428;2023-04-15T02:12:35;28.67;25.67;17.67
46044;PMS7003;31781;54.094;13.428;2023-04-15T02:14:52;23.00;20.67;14.33
46044;PMS7003;31781;54.094;13.428;2023-04-15T02:17:08;20.00;20.00;14.00
46044;PMS7003;31781;54.094;13.428;2023-04-15T02:19:23;22.67;20.33;13.67
46044;PMS7003;31781;54.094;13.428;2023-04-15T02:21:42;24.00;21.00;14.33
46044;PMS7003;31781;54.094;13.428;2023-04-15T02:23:49;22.00;22.00;14.00
46044;PMS7003;31781;54.094;13.428;2023-04-15T02:26:04;26.67;25.33;18.67
46044;PMS7003;31781;54.094;13.428;2023-04-15T02:30:53;26.67;24.67;18.33
46044;PMS7003;31781;54.094;13.428;2023-04-15T02:32:59;27.00;24.67;18.00
46044;PMS7003;31781;54.094;13.428;2023-04-15T02:35:18;20.33;20.00;13.67
46044;PMS7003;31781;54.094;13.428;2023-04-15T02:37:35;21.33;20.00;14.00
46044;PMS7003;31781;54.094;13.428;2023-04-15T02:39:50;31.00;31.00;20.00
46044;PMS7003;31781;54.094;13.428;2023-04-15T02:41:54;30.00;26.00;18.67
46044;PMS7003;31781;54.094;13.428;2023-04-15T02:47:01;28.67;27.67;19.00
46044;PMS7003;31781;54.094;13.428;2023-04-15T02:49:18;24.33;24.33;17.00
46044;PMS7003;31781;54.094;13.428;2023-04-15T02:51:41;30.33;29.00;19.67
46044;PMS7003;31781;54.094;13.428;2023-04-15T02:53:58;27.33;25.67;17.00
46044;PMS7003;31781;54.094;13.428;2023-04-15T02:56:14;23.67;23.67;18.00
46044;PMS7003;31781;54.094;13.428;2023-04-15T02:58:17;25.67;25.67;18.33
46044;PMS7003;31781;54.094;13.428;2023-04-15T03:00:21;27.33;22.33;17.33
46044;PMS7003;31781;54.094;13.428;2023-04-15T03:05:01;22.00;22.00;18.00
46044;PMS7003;31781;54.094;13.428;2023-04-15T03:07:09;30.33;27.67;18.00
46044;PMS7003;31781;54.094;13.428;2023-04-15T03:09:13;24.67;24.00;16.00
46044;PMS7003;31781;54.094;13.428;2023-04-15T03:11:33;22.33;22.00;18.00
46044;PMS7003;31781;54.094;13.428;2023-04-15T03:13:36;29.00;24.67;16.00
46044;PMS7003;31781;54.094;13.428;2023-04-15T03:15:38;29.00;29.00;17.33
46044;PMS7003;31781;54.094;13.428;2023-04-15T03:20:08;25.67;23.00;15.33
46044;PMS7003;31781;54.094;13.428;2023-04-15T03:22:12;28.33;28.33;20.00
46044;PMS7003;31781;54.094;13.428;2023-04-15T03:24:14;23.67;22.33;17.33
46044;PMS7003;31781;54.094;13.428;2023-04-15T03:26:27;27.67;22.00;15.00
46044;PMS7003;31781;54.094;13.428;2023-04-15T03:28:46;25.33;22.67;15.67
46044;PMS7003;31781;54.094;13.428;2023-04-15T03:31:04;25.33;24.67;16.33
46044;PMS7003;31781;54.094;13.428;2023-04-15T03:33:10;25.00;25.00;18.33
46044;PMS7003;31781;54.094;13.428;2023-04-15T03:35:26;22.33;21.33;17.00
46044;PMS7003;31781;54.094;13.428;2023-04-15T03:37:29;24.00;21.67;14.33
46044;PMS7003;31781;54.094;13.428;2023-04-15T03:39:32;30.00;26.00;17.67
46044;PMS7003;31781;54.094;13.428;2023-04-15T03:41:42;25.00;23.33;14.33
46044;PMS7003;31781;54.094;13.428;2023-04-15T03:43:58;22.33;22.00;16.33
46044;PMS7003;31781;54.094;13.428;2023-04-15T03:46:06;27.00;24.00;17.67
46044;PMS7003;31781;54.094;13.428;2023-04-15T03:48:10;21.00;21.00;15.00
46044;PMS7003;31781;54.094;13.428;2023-04-15T03:50:20;25.33;22.67;16.33
46044;PMS7003;31781;54.094;13.428;2023-04-15T03:52:56;25.00;23.00;16.33
46044;PMS7003;31781;54.094;13.428;2023-04-15T03:56:01;30.00;26.00;18.33
46044;PMS7003;31781;54.094;13.428;2023-04-15T03:57:53;15.67;15.67;10.67
46044;PMS7003;31781;54.094;13.428;2023-04-15T04:00:17;19.00;19.00;15.00
46044;PMS7003;31781;54.094;13.428;2023-04-15T04:02:47;26.67;23.67;15.00
46044;PMS7003;31781;54.094;13.428;2023-04-15T04:04:52;20.00;20.00;14.67
46044;PMS7003;31781;54.094;13.428;2023-04-15T04:06:59;22.00;19.67;14.67
46044;PMS7003;31781;54.094;13.428;2023-04-15T04:09:16;25.67;24.00;16.00
46044;PMS7003;31781;54.094;13.428;2023-04-15T04:11:23;20.33;19.00;15.00
46044;PMS7003;31781;54.094;13.428;2023-04-15T04:13:39;18.00;18.00;13.00
46044;PMS7003;31781;54.094;13.428;2023-04-15T04:16:09;24.00;21.67;15.00
46044;PMS7003;31781;54.094;13.428;2023-04-15T04:18:12;25.00;19.33;14.00
46044;PMS7003;31781;54.094;13.428;2023-04-15T04:22:56;21.00;21.00;15.33
46044;PMS7003;31781;54.094;13.428;2023-04-15T04:25:12;22.00;20.33;14.33
46044;PMS7003;31781;54.094;13.428;2023-04-15T04:27:24;24.00;20.00;15.67
46044;PMS7003;31781;54.094;13.428;2023-04-15T04:29:25;19.33;19.33;14.00
46044;PMS7003;31781;54.094;13.428;2023-04-15T04:31:27;19.33;19.33;14.67
46044;PMS7003;31781;54.094;13.428;2023-04-15T04:33:33;23.00;21.67;14.67
46044;PMS7003;31781;54.094;13.428;2023-04-15T04:41:09;18.33;15.67;13.33
46044;PMS7003;31781;54.094;13.428;2023-04-15T04:43:32;21.33;20.33;15.33
46044;PMS7003;31781;54.094;13.428;2023-04-15T04:45:48;20.00;20.00;15.33
46044;PMS7003;31781;54.094;13.428;2023-04-15T04:47:54;22.00;20.00;15.00
46044;PMS7003;31781;54.094;13.428;2023-04-15T04:49:56;22.25;19.75;14.50
46044;PMS7003;31781;54.094;13.428;2023-04-15T04:51:58;20.67;17.00;12.33
46044;PMS7003;31781;54.094;13.428;2023-04-15T05:07:44;30.00;28.67;22.67
46044;PMS7003;31781;54.094;13.428;2023-04-15T05:10:03;35.33;33.67;25.67
46044;PMS7003;31781;54.094;13.428;2023-04-15T05:12:20;35.33;35.00;27.00
46044;PMS7003;31781;54.094;13.428;2023-04-15T05:14:30;38.67;34.33;28.00
46044;PMS7003;31781;54.094;13.428;2023-04-15T05:16:39;44.33;39.00;31.00
46044;PMS7003;31781;54.094;13.428;2023-04-15T05:18:56;44.33;38.67;28.67
46044;PMS7003;31781;54.094;13.428;2023-04-15T05:21:13;30.33;29.33;23.67
46044;PMS7003;31781;54.094;13.428;2023-04-15T05:36:52;19.67;19.33;14.33
46044;PMS7003;31781;54.094;13.428;2023-04-15T05:39:09;17.67;17.67;10.33
46044;PMS7003;31781;54.094;13.428;2023-04-15T05:41:25;16.67;16.67;12.67
46044;PMS7003;31781;54.094;13.428;2023-04-15T05:43:40;19.75;19.75;14.75
46044;PMS7003;31781;54.094;13.428;2023-04-15T05:45:59;20.00;20.00;15.75
46044;PMS7003;31781;54.094;13.428;2023-04-15T05:48:14;25.25;21.50;15.50
46044;PMS7003;31781;54.094;13.428;2023-04-15T06:04:00;22.00;22.00;15.33
46044;PMS7003;31781;54.094;13.428;2023-04-15T06:06:16;22.25;22.25;16.25
46044;PMS7003;31781;54.094;13.428;2023-04-15T06:08:31;24.50;24.25;15.25
46044;PMS7003;31781;54.094;13.428;2023-04-15T06:10:48;23.00;21.00;16.00
46044;PMS7003;31781;54.094;13.428;2023-04-15T06:13:06;27.00;22.25;15.75
46044;PMS7003;31781;54.094;13.428;2023-04-15T06:15:22;27.75;26.00;19.00
46044;PMS7003;31781;54.094;13.428;2023-04-15T06:20:39;23.50;21.00;14.75
46044;PMS7003;31781;54.094;13.428;2023-04-15T06:23:03;24.50;22.50;16.75
46044;PMS7003;31781;54.094;13.428;2023-04-15T06:25:05;24.50;23.00;15.25
46044;PMS7003;31781;54.094;13.428;2023-04-15T06:27:28;26.50;24.25;18.25
46044;PMS7003;31781;54.094;13.428;2023-04-15T06:29:30;24.00;23.75;18.25
46044;PMS7003;31781;54.094;13.428;2023-04-15T06:31:32;19.50;18.00;11.75
46044;PMS7003;31781;54.094;13.428;2023-04-15T06:41:53;18.50;16.75;11.75
46044;PMS7003;31781;54.094;13.428;2023-04-15T06:44:08;24.75;24.75;18.75
46044;PMS7003;31781;54.094;13.428;2023-04-15T06:46:24;18.75;18.75;18.50
46044;PMS7003;31781;54.094;13.428;2023-04-15T06:48:39;30.25;26.75;19.00
46044;PMS7003;31781;54.094;13.428;2023-04-15T06:50:52;28.50;27.75;18.75
46044;PMS7003;31781;54.094;13.428;2023-04-15T06:53:07;26.00;26.00;19.50
46044;PMS7003;31781;54.094;13.428;2023-04-15T06:55:11;26.75;25.75;19.25
46044;PMS7003;31781;54.094;13.428;2023-04-15T06:57:43;28.75;28.25;19.75
46044;PMS7003;31781;54.094;13.428;2023-04-15T07:00:07;23.25;23.25;18.50
46044;PMS7003;31781;54.094;13.428;2023-04-15T07:02:25;26.00;26.00;19.75
46044;PMS7003;31781;54.094;13.428;2023-04-15T07:04:45;26.75;23.25;18.25
46044;PMS7003;31781;54.094;13.428;2023-04-15T07:06:50;28.25;28.25;20.00
46044;PMS7003;31781;54.094;13.428;2023-04-15T07:09:08;25.25;24.75;18.75
46044;PMS7003;31781;54.094;13.428;2023-04-15T07:11:15;25.00;24.75;18.00
46044;PMS7003;31781;54.094;13.428;2023-04-15T07:13:31;24.00;22.25;16.75
46044;PMS7003;31781;54.094;13.428;2023-04-15T07:15:39;31.00;28.00;19.75
46044;PMS7003;31781;54.094;13.428;2023-04-15T07:17:44;26.50;26.50;19.00
46044;PMS7003;31781;54.094;13.428;2023-04-15T07:19:47;27.50;25.75;20.00
46044;PMS7003;31781;54.094;13.428;2023-04-15T07:22:03;29.00;27.25;19.00
46044;PMS7003;31781;54.094;13.428;2023-04-15T07:24:24;23.75;23.75;17.50
46044;PMS7003;31781;54.094;13.428;2023-04-15T07:29:11;27.50;25.25;17.25
46044;PMS7003;31781;54.094;13.428;2023-04-15T07:31:28;33.25;29.75;21.00
46044;PMS7003;31781;54.094;13.428;2023-04-15T07:33:46;25.00;22.00;15.75
46044;PMS7003;31781;54.094;13.428;2023-04-15T07:36:10;29.75;25.00;16.50
46044;PMS7003;31781;54.094;13.428;2023-04-15T07:38:12;26.00;25.50;18.25
46044;PMS7003;31781;54.094;13.428;2023-04-15T07:40:15;26.75;25.50;18.00
46044;PMS7003;31781;54.094;13.428;2023-04-15T07:42:28;34.00;27.50;19.75
46044;PMS7003;31781;54.094;13.428;2023-04-15T07:44:50;25.75;25.75;17.50
46044;PMS7003;31781;54.094;13.428;2023-04-15T07:47:06;28.00;25.75;19.75
46044;PMS7003;31781;54.094;13.428;2023-04-15T07:49:36;18.00;17.50;15.00
46044;PMS7003;31781;54.094;13.428;2023-04-15T07:52:43;25.50;23.50;18.25
46044;PMS7003;31781;54.094;13.428;2023-04-15T07:55:21;26.25;25.00;17.00
46044;PMS7003;31781;54.094;13.428;2023-04-15T07:59:43;25.25;24.25;16.75
46044;PMS7003;31781;54.094;13.428;2023-04-15T08:01:58;26.25;24.25;17.00
46044;PMS7003;31781;54.094;13.428;2023-04-15T08:04:08;26.50;23.50;18.50
46044;PMS7003;31781;54.094;13.428;2023-04-15T08:06:14;17.75;16.75;16.25
46044;PMS7003;31781;54.094;13.428;2023-04-15T08:08:31;26.00;23.00;17.25
46044;PMS7003;31781;54.094;13.428;2023-04-15T08:10:36;22.75;22.00;16.50
46044;PMS7003;31781;54.094;13.428;2023-04-15T08:12:41;28.50;26.75;20.75
46044;PMS7003;31781;54.094;13.428;2023-04-15T08:15:03;25.75;25.75;17.00
46044;PMS7003;31781;54.094;13.428;2023-04-15T08:17:22;23.50;23.50;15.00
46044;PMS7003;31781;54.094;13.428;2023-04-15T08:19:29;25.00;25.00;18.50
46044;PMS7003;31781;54.094;13.428;2023-04-15T08:21:31;28.50;24.50;17.50
46044;PMS7003;31781;54.094;13.428;2023-04-15T08:23:35;24.50;22.25;14.25
46044;PMS7003;31781;54.094;13.428;2023-04-15T08:25:39;31.25;28.25;21.00
46044;PMS7003;31781;54.094;13.428;2023-04-15T08:27:51;26.50;25.25;18.75
46044;PMS7003;31781;54.094;13.428;2023-04-15T08:30:09;31.25;28.25;19.00
46044;PMS7003;31781;54.094;13.428;2023-04-15T08:32:34;27.00;27.00;18.25
46044;PMS7003;31781;54.094;13.428;2023-04-15T08:34:52;30.25;25.00;20.00
46044;PMS7003;31781;54.094;13.428;2023-04-15T08:37:17;31.00;28.00;18.25
46044;PMS7003;31781;54.094;13.428;2023-04-15T08:40:02;26.75;26.75;19.75
46044;PMS7003;31781;54.094;13.428;2023-04-15T08:42:56;26.75;26.75;19.00
46044;PMS7003;31781;54.094;13.428;2023-04-15T08:59:09;32.50;29.75;19.75
46044;PMS7003;31781;54.094;13.428;2023-04-15T09:01:24;30.00;30.00;22.00
46044;PMS7003;31781;54.094;13.428;2023-04-15T09:03:42;31.00;31.00;21.50
46044;PMS7003;31781;54.094;13.428;2023-04-15T09:06:05;34.25;30.00;21.00
46044;PMS7003;31781;54.094;13.428;2023-04-15T09:08:41;31.00;31.00;21.75
46044;PMS7003;31781;54.094;13.428;2023-04-15T09:10:42;28.50;28.50;20.00
46044;PMS7003;31781;54.094;13.428;2023-04-15T09:13:00;29.75;29.25;19.50
46044;PMS7003;31781;54.094;13.428;2023-04-15T09:17:49;31.75;28.50;18.50
46044;PMS7003;31781;54.094;13.428;2023-04-15T09:20:10;31.25;27.00;19.25
46044;PMS7003;31781;54.094;13.428;2023-04-15T09:22:20;30.50;30.25;21.00
46044;PMS7003;31781;54.094;13.428;2023-04-15T09:24:22;32.25;31.75;20.75
46044;PMS7003;31781;54.094;13.428;2023-04-15T09:26:50;36.75;33.00;21.00
46044;PMS7003;31781;54.094;13.428;2023-04-15T09:29:07;33.25;32.00;20.25
46044;PMS7003;31781;54.094;13.428;2023-04-15T09:31:37;25.75;24.00;21.25
46044;PMS7003;31781;54.094;13.428;2023-04-15T09:33:56;30.50;29.00;21.50
46044;PMS7003;31781;54.094;13.428;2023-04-15T09:36:15;36.00;33.25;21.25
46044;PMS7003;31781;54.094;13.428;2023-04-15T09:38:32;32.00;29.00;20.00
46044;PMS7003;31781;54.094;13.428;2023-04-15T09:41:09;33.25;31.75;21.00
46044;PMS7003;31781;54.094;13.428;2023-04-15T09:43:39;32.50;30.50;20.00
46044;PMS7003;31781;54.094;13.428;2023-04-15T09:45:55;34.75;32.25;21.00
46044;PMS7003;31781;54.094;13.428;2023-04-15T09:50:41;31.00;30.00;20.00
46044;PMS7003;31781;54.094;13.428;2023-04-15T09:53:02;36.25;33.25;22.75
46044;PMS7003;31781;54.094;13.428;2023-04-15T09:55:23;29.75;29.75;21.00
46044;PMS7003;31781;54.094;13.428;2023-04-15T09:57:39;37.00;32.25;21.00
46044;PMS7003;31781;54.094;13.428;2023-04-15T09:59:56;19.25;19.25;11.00
46044;PMS7003;31781;54.094;13.428;2023-04-15T10:02:12;36.00;30.75;21.50
46044;PMS7003;31781;54.094;13.428;2023-04-15T10:09:44;26.25;23.75;19.25
46044;PMS7003;31781;54.094;13.428;2023-04-15T10:12:09;34.75;31.50;20.50
46044;PMS7003;31781;54.094;13.428;2023-04-15T10:14:39;33.00;31.50;21.00
46044;PMS7003;31781;54.094;13.428;2023-04-15T10:17:00;33.50;31.00;21.00
46044;PMS7003;31781;54.094;13.428;2023-04-15T10:19:16;31.25;29.25;19.75
46044;PMS7003;31781;54.094;13.428;2023-04-15T10:21:36;33.50;30.00;21.25
46044;PMS7003;31781;54.094;13.428;2023-04-15T10:24:02;32.50;26.75;20.75
46044;PMS7003;31781;54.094;13.428;2023-04-15T10:34:37;34.00;31.75;21.00
46044;PMS7003;31781;54.094;13.428;2023-04-15T10:37:08;31.00;30.75;21.00
46044;PMS7003;31781;54.094;13.428;2023-04-15T10:39:47;32.25;30.75;20.50
46044;PMS7003;31781;54.094;13.428;2023-04-15T10:42:20;30.50;27.25;20.50
46044;PMS7003;31781;54.094;13.428;2023-04-15T10:44:46;33.25;32.25;21.75
46044;PMS7003;31781;54.094;13.428;2023-04-15T10:47:18;30.75;30.75;20.50
46044;PMS7003;31781;54.094;13.428;2023-04-15T10:49:34;31.25;30.50;21.00
46044;PMS7003;31781;54.094;13.428;2023-04-15T10:52:03;36.25;31.75;22.25
46044;PMS7003;31781;54.094;13.428;2023-04-15T11:36:32;28.00;26.75;18.75
46044;PMS7003;31781;54.094;13.428;2023-04-15T11:38:37;31.00;29.00;21.00
46044;PMS7003;31781;54.094;13.428;2023-04-15T11:40:43;30.00;30.00;21.00
46044;PMS7003;31781;54.094;13.428;2023-04-15T11:42:55;34.75;32.00;21.00
46044;PMS7003;31781;54.094;13.428;2023-04-15T11:45:05;27.00;27.00;18.50
46044;PMS7003;31781;54.094;13.428;2023-04-15T11:47:23;33.00;31.00;21.25
46044;PMS7003;31781;54.094;13.428;2023-04-15T11:49:35;33.25;30.75;20.75
46044;PMS7003;31781;54.094;13.428;2023-04-15T11:51:41;30.00;27.00;20.00
46044;PMS7003;31781;54.094;13.428;2023-04-15T11:53:50;33.00;30.25;21.25
46044;PMS7003;31781;54.094;13.428;2023-04-15T11:55:52;31.50;30.50;21.00
46044;PMS7003;31781;54.094;13.428;2023-04-15T11:58:07;36.00;31.50;21.00
46044;PMS7003;31781;54.094;13.428;2023-04-15T12:00:22;32.00;31.50;21.00
46044;PMS7003;31781;54.094;13.428;2023-04-15T12:11:41;32.75;30.00;21.00
46044;PMS7003;31781;54.094;13.428;2023-04-15T12:14:23;37.25;31.75;19.75
46044;PMS7003;31781;54.094;13.428;2023-04-15T12:16:43;25.50;25.50;19.50
46044;PMS7003;31781;54.094;13.428;2023-04-15T12:19:03;31.25;30.25;20.25
46044;PMS7003;31781;54.094;13.428;2023-04-15T12:21:32;28.00;27.75;19.50
46044;PMS7003;31781;54.094;13.428;2023-04-15T12:24:09;30.25;29.00;18.75
46044;PMS7003;31781;54.094;13.428;2023-04-15T12:26:45;27.75;25.50;16.00
46044;PMS7003;31781;54.094;13.428;2023-04-15T12:29:43;24.00;22.50;13.75
46044;PMS7003;31781;54.094;13.428;2023-04-15T12:31:42;33.00;29.50;20.50
46044;PMS7003;31781;54.094;13.428;2023-04-15T12:34:24;32.75;28.75;20.75
46044;PMS7003;31781;54.094;13.428;2023-04-15T12:36:49;37.25;32.00;21.25
46044;PMS7003;31781;54.094;13.428;2023-04-15T12:39:17;25.75;24.75;16.00
46044;PMS7003;31781;54.094;13.428;2023-04-15T12:41:32;31.00;26.75;17.25
46044;PMS7003;31781;54.094;13.428;2023-04-15T12:46:07;32.75;30.25;19.50
46044;PMS7003;31781;54.094;13.428;2023-04-15T12:48:23;32.75;31.25;20.50
46044;PMS7003;31781;54.094;13.428;2023-04-15T12:50:24;27.25;25.75;17.00
46044;PMS7003;31781;54.094;13.428;2023-04-15T12:52:34;34.00;31.25;21.25
46044;PMS7003;31781;54.094;13.428;2023-04-15T12:54:46;31.50;28.50;19.00
46044;PMS7003;31781;54.094;13.428;2023-04-15T12:56:53;32.25;28.50;20.25
46044;PMS7003;31781;54.094;13.428;2023-04-15T12:59:04;31.25;28.50;19.00
46044;PMS7003;31781;54.094;13.428;2023-04-15T13:01:09;27.50;27.00;17.50
46044;PMS7003;31781;54.094;13.428;2023-04-15T13:03:12;28.50;28.50;17.75
46044;PMS7003;31781;54.094;13.428;2023-04-15T13:05:16;29.75;28.00;18.50
46044;PMS7003;31781;54.094;13.428;2023-04-15T13:07:30;30.25;29.00;19.75
46044;PMS7003;31781;54.094;13.428;2023-04-15T13:09:43;30.25;28.50;18.75
46044;PMS7003;31781;54.094;13.428;2023-04-15T13:12:05;31.00;30.00;20.75
46044;PMS7003;31781;54.094;13.428;2023-04-15T13:14:30;29.25;26.75;18.75
46044;PMS7003;31781;54.094;13.428;2023-04-15T13:16:40;35.00;30.75;20.50
46044;PMS7003;31781;54.094;13.428;2023-04-15T13:18:53;27.00;24.00;19.25
46044;PMS7003;31781;54.094;13.428;2023-04-15T13:21:15;32.75;30.25;21.00
46044;PMS7003;31781;54.094;13.428;2023-04-15T13:26:14;33.00;31.00;20.25
46044;PMS7003;31781;54.094;13.428;2023-04-15T13:28:42;25.75;25.75;19.75
46044;PMS7003;31781;54.094;13.428;2023-04-15T13:31:20;30.50;29.00;21.00
46044;PMS7003;31781;54.094;13.428;2023-04-15T13:33:36;27.00;22.75;17.50
46044;PMS7003;31781;54.094;13.428;2023-04-15T13:35:38;29.00;28.75;20.75
46044;PMS7003;31781;54.094;13.428;2023-04-15T13:37:40;32.50;29.75;20.50
46044;PMS7003;31781;54.094;13.428;2023-04-15T13:39:42;18.50;18.50;16.25
46044;PMS7003;31781;54.094;13.428;2023-04-15T13:41:45;32.00;30.25;20.00
46044;PMS7003;31781;54.094;13.428;2023-04-15T13:43:47;27.75;27.50;20.50
46044;PMS7003;31781;54.094;13.428;2023-04-15T13:45:54;27.50;27.25;20.25
46044;PMS7003;31781;54.094;13.428;2023-04-15T13:47:56;24.50;22.75;16.50
46044;PMS7003;31781;54.094;13.428;2023-04-15T13:49:58;28.75;27.25;19.00
46044;PMS7003;31781;54.094;13.428;2023-04-15T13:52:00;17.50;17.50;13.75
46044;PMS7003;31781;54.094;13.428;2023-04-15T13:54:03;31.00;27.50;18.75
46044;PMS7003;31781;54.094;13.428;2023-04-15T13:56:05;23.50;21.50;18.25
46044;PMS7003;31781;54.094;13.428;2023-04-15T13:58:11;27.75;23.75;17.25
46044;PMS7003;31781;54.094;13.428;2023-04-15T14:00:12;26.25;24.25;18.00
46044;PMS7003;31781;54.094;13.428;2023-04-15T14:02:19;24.50;24.00;18.00
46044;PMS7003;31781;54.094;13.428;2023-04-15T14:04:22;28.00;23.50;17.25
46044;PMS7003;31781;54.094;13.428;2023-04-15T14:06:24;18.50;18.50;12.75
46044;PMS7003;31781;54.094;13.428;2023-04-15T14:08:26;22.25;22.25;16.75
46044;PMS7003;31781;54.094;13.428;2023-04-15T14:10:28;21.75;19.50;12.75
46044;PMS7003;31781;54.094;13.428;2023-04-15T14:12:29;23.50;23.50;16.00
46044;PMS7003;31781;54.094;13.428;2023-04-15T14:14:33;27.25;23.25;17.00
46044;PMS7003;31781;54.094;13.428;2023-04-15T14:16:34;21.00;18.75;14.25
46044;PMS7003;31781;54.094;13.428;2023-04-15T14:18:36;27.50;27.50;20.75
46044;PMS7003;31781;54.094;13.428;2023-04-15T14:20:38;29.00;29.00;17.25
46044;PMS7003;31781;54.094;13.428;2023-04-15T14:22:40;28.25;25.25;17.75
46044;PMS7003;31781;54.094;13.428;2023-04-15T14:24:41;28.75;27.00;17.75
46044;PMS7003;31781;54.094;13.428;2023-04-15T14:26:43;24.75;23.25;17.50
46044;PMS7003;31781;54.094;13.428;2023-04-15T14:28:45;24.50;22.75;15.25
46044;PMS7003;31781;54.094;13.428;2023-04-15T14:30:48;23.00;21.00;16.00
46044;PMS7003;31781;54.094;13.428;2023-04-15T14:32:49;24.75;23.00;15.00
46044;PMS7003;31781;54.094;13.428;2023-04-15T14:34:51;23.50;21.25;15.00
46044;PMS7003;31781;54.094;13.428;2023-04-15T14:36:53;19.00;19.00;14.00
46044;PMS7003;31781;54.094;13.428;2023-04-15T14:38:54;24.50;22.25;15.75
46044;PMS7003;31781;54.094;13.428;2023-04-15T14:40:56;23.00;23.00;17.00
46044;PMS7003;31781;54.094;13.428;2023-04-15T14:42:58;26.25;23.25;17.00
46044;PMS7003;31781;54.094;13.428;2023-04-15T14:45:00;21.75;21.75;14.75
46044;PMS7003;31781;54.094;13.428;2023-04-15T14:47:03;24.00;20.00;12.75
46044;PMS7003;31781;54.094;13.428;2023-04-15T14:49:06;27.75;26.00;17.25
46044;PMS7003;31781;54.094;13.428;2023-04-15T14:51:08;22.75;22.25;15.00
46044;PMS7003;31781;54.094;13.428;2023-04-15T14:53:10;23.25;20.25;15.25
46044;PMS7003;31781;54.094;13.428;2023-04-15T14:55:11;22.00;22.00;16.00
46044;PMS7003;31781;54.094;13.428;2023-04-15T14:57:13;27.25;21.25;15.00
46044;PMS7003;31781;54.094;13.428;2023-04-15T14:59:18;21.00;21.00;14.00
46044;PMS7003;31781;54.094;13.428;2023-04-15T15:01:20;24.00;24.00;16.00
46044;PMS7003;31781;54.094;13.428;2023-04-15T15:03:23;23.75;23.75;17.75
46044;PMS7003;31781;54.094;13.428;2023-04-15T15:05:26;22.50;22.50;18.00
46044;PMS7003;31781;54.094;13.428;2023-04-15T15:07:28;24.00;20.25;15.00
46044;PMS7003;31781;54.094;13.428;2023-04-15T15:09:30;21.50;21.50;16.25
46044;PMS7003;31781;54.094;13.428;2023-04-15T15:11:34;25.00;25.00;17.75
46044;PMS7003;31781;54.094;13.428;2023-04-15T15:13:36;16.50;16.50;13.75
46044;PMS7003;31781;54.094;13.428;2023-04-15T15:15:39;22.75;21.50;14.75
46044;PMS7003;31781;54.094;13.428;2023-04-15T15:17:41;22.50;20.75;14.50
46044;PMS7003;31781;54.094;13.428;2023-04-15T15:19:44;22.00;21.00;15.50
46044;PMS7003;31781;54.094;13.428;2023-04-15T15:21:46;22.25;20.75;14.50
46044;PMS7003;31781;54.094;13.428;2023-04-15T15:23:48;23.50;22.25;14.75
46044;PMS7003;31781;54.094;13.428;2023-04-15T15:25:49;24.75;24.00;18.75
46044;PMS7003;31781;54.094;13.428;2023-04-15T15:27:51;26.50;24.75;18.75
46044;PMS7003;31781;54.094;13.428;2023-04-15T15:29:53;21.75;21.75;15.75
46044;PMS7003;31781;54.094;13.428;2023-04-15T15:31:56;20.00;20.00;13.50
46044;PMS7003;31781;54.094;13.428;2023-04-15T15:33:58;23.25;21.25;16.00
46044;PMS7003;31781;54.094;13.428;2023-04-15T15:36:01;20.75;20.75;14.50